sensor_id;sensor_type;location;lat;lon;timestamp;temperature;humidity
43099;DHT22;28715;51.988;6.020;2023-07-31T00:00:40;17.30;99.90
43099;DHT22;28715;51.988;6.020;2023-07-31T00:03:06;17.30;99.90
43099;DHT22;28715;51.988;6.020;2023-07-31T00:05:31;17.30;99.90
43099;DHT22;28715;51.988;6.020;2023-07-31T00:07:57;17.30;99.90
43099;DHT22;28715;51.988;6.020;2023-07-31T00:10:22;17.30;99.90
43099;DHT22;28715;51.988;6.020;2023-07-31T00:12:48;17.30;99.90
43099;DHT22;28715;51.988;6.020;2023-07-31T00:15:13;17.40;99.90
43099;DHT22;28715;51.988;6.020;2023-07-31T00:17:39;17.30;99.90
43099;DHT22;28715;51.988;6.020;2023-07-31T00:20:05;17.40;99.90
43099;DHT22;28715;51.988;6.020;2023-07-31T00:22:31;17.40;99.90
43099;DHT22;28715;51.988;6.020;2023-07-31T00:24:56;17.40;99.90
43099;DHT22;28715;51.988;6.020;2023-07-31T00:27:22;17.40;99.90
43099;DHT22;28715;51.988;6.020;2023-07-31T00:29:48;17.30;99.90
43099;DHT22;28715;51.988;6.020;2023-07-31T00:32:13;17.30;99.90
43099;DHT22;28715;51.988;6.020;2023-07-31T00:34:39;17.30;99.90
43099;DHT22;28715;51.988;6.020;2023-07-31T00:37:16;17.30;99.90
43099;DHT22;28715;51.988;6.020;2023-07-31T00:39:57;17.30;99.90
43099;DHT22;28715;51.988;6.020;2023-07-31T00:42:26;17.30;99.90
43099;DHT22;28715;51.988;6.020;2023-07-31T00:44:51;17.30;99.90
43099;DHT22;28715;51.988;6.020;2023-07-31T00:47:17;17.40;99.90
43099;DHT22;28715;51.988;6.020;2023-07-31T00:49:42;17.30;99.90
43099;DHT22;28715;51.988;6.020;2023-07-31T00:52:18;17.40;99.90
43099;DHT22;28715;51.988;6.020;2023-07-31T00:54:43;17.40;99.90
43099;DHT22;28715;51.988;6.020;2023-07-31T00:57:09;17.40;99.90
43099;DHT22;28715;51.988;6.020;2023-07-31T00:59:34;17.50;99.90
43099;DHT22;28715;51.988;6.020;2023-07-31T01:02:03;17.50;99.90
43099;DHT22;28715;51.988;6.020;2023-07-31T01:04:29;17.50;99.90
43099;DHT22;28715;51.988;6.020;2023-07-31T01:09:41;17.60;99.90
43099;DHT22;28715;51.988;6.020;2023-07-31T01:12:08;17.70;99.90
43099;DHT22;28715;51.988;6.020;2023-07-31T01:14:41;17.70;99.90
43099;DHT22;28715;51.988;6.020;2023-07-31T01:17:20;17.80;99.90
43099;DHT22;28715;51.988;6.020;2023-07-31T01:19:46;17.80;99.90
43099;DHT22;28715;51.988;6.020;2023-07-31T01:22:16;17.80;99.90
43099;DHT22;28715;51.988;6.020;2023-07-31T01:27:30;17.90;99.90
43099;DHT22;28715;51.988;6.020;2023-07-31T01:29:57;18.00;99.90
43099;DHT22;28715;51.988;6.020;2023-07-31T01:32:23;18.00;99.90
43099;DHT22;28715;51.988;6.020;2023-07-31T01:34:50;18.00;99.90
43099;DHT22;28715;51.988;6.020;2023-07-31T01:37:19;18.10;99.90
43099;DHT22;28715;51.988;6.020;2023-07-31T01:39:45;18.00;99.90
43099;DHT22;28715;51.988;6.020;2023-07-31T01:42:10;18.00;99.90
43099;DHT22;28715;51.988;6.020;2023-07-31T01:44:36;18.10;99.90
43099;DHT22;28715;51.988;6.020;2023-07-31T01:47:01;18.10;99.90
43099;DHT22;28715;51.988;6.020;2023-07-31T01:49:26;18.10;99.90
43099;DHT22;28715;51.988;6.020;2023-07-31T01:51:52;18.10;99.90
43099;DHT22;28715;51.988;6.020;2023-07-31T01:54:17;18.10;99.90
43099;DHT22;28715;51.988;6.020;2023-07-31T01:56:43;18.10;99.90
43099;DHT22;28715;51.988;6.020;2023-07-31T01:59:08;18.10;99.90
43099;DHT22;28715;51.988;6.020;2023-07-31T02:01:34;18.10;99.90
43099;DHT22;28715;51.988;6.020;2023-07-31T02:03:59;18.10;99.90
43099;DHT22;28715;51.988;6.020;2023-07-31T02:06:25;18.10;99.90
43099;DHT22;28715;51.988;6.020;2023-07-31T02:08:53;18.10;99.90
43099;DHT22;28715;51.988;6.020;2023-07-31T02:11:19;18.10;99.90
43099;DHT22;28715;51.988;6.020;2023-07-31T02:13:44;18.10;99.90
43099;DHT22;28715;51.988;6.020;2023-07-31T02:16:10;18.10;99.90
43099;DHT22;28715;51.988;6.020;2023-07-31T02:18:35;18.00;99.90
43099;DHT22;28715;51.988;6.020;2023-07-31T02:21:01;18.00;99.90
43099;DHT22;28715;51.988;6.020;2023-07-31T02:23:27;18.00;99.90
43099;DHT22;28715;51.988;6.020;2023-07-31T02:25:52;18.00;99.90
43099;DHT22;28715;51.988;6.020;2023-07-31T02:28:18;18.00;99.90
43099;DHT22;28715;51.988;6.020;2023-07-31T02:30:44;18.10;99.90
43099;DHT22;28715;51.988;6.020;2023-07-31T02:33:10;18.10;99.90
43099;DHT22;28715;51.988;6.020;2023-07-31T02:35:36;18.00;99.90
43099;DHT22;28715;51.988;6.020;2023-07-31T02:38:01;18.10;99.90
43099;DHT22;28715;51.988;6.020;2023-07-31T02:40:27;18.00;99.90
43099;DHT22;28715;51.988;6.020;2023-07-31T02:42:52;18.00;99.90
43099;DHT22;28715;51.988;6.020;2023-07-31T02:45:18;18.00;99.90
43099;DHT22;28715;51.988;6.020;2023-07-31T02:47:43;18.10;99.90
43099;DHT22;28715;51.988;6.020;2023-07-31T02:50:09;18.10;99.90
43099;DHT22;28715;51.988;6.020;2023-07-31T02:52:34;18.10;99.90
43099;DHT22;28715;51.988;6.020;2023-07-31T02:55:00;18.10;99.90
43099;DHT22;28715;51.988;6.020;2023-07-31T02:57:25;18.10;99.90
43099;DHT22;28715;51.988;6.020;2023-07-31T02:59:51;18.10;99.90
43099;DHT22;28715;51.988;6.020;2023-07-31T03:02:17;18.10;99.90
43099;DHT22;28715;51.988;6.020;2023-07-31T03:04:43;18.10;99.90
43099;DHT22;28715;51.988;6.020;2023-07-31T03:07:08;18.20;99.90
43099;DHT22;28715;51.988;6.020;2023-07-31T03:09:34;18.10;99.90
43099;DHT22;28715;51.988;6.020;2023-07-31T03:11:59;18.10;99.90
43099;DHT22;28715;51.988;6.020;2023-07-31T03:14:25;18.10;99.90
43099;DHT22;28715;51.988;6.020;2023-07-31T03:16:52;18.20;99.90
43099;DHT22;28715;51.988;6.020;2023-07-31T03:19:17;18.20;99.90
43099;DHT22;28715;51.988;6.020;2023-07-31T03:21:43;18.20;99.90
43099;DHT22;28715;51.988;6.020;2023-07-31T03:24:08;18.20;99.90
43099;DHT22;28715;51.988;6.020;2023-07-31T03:26:37;18.20;99.90
43099;DHT22;28715;51.988;6.020;2023-07-31T03:29:11;18.10;99.90
43099;DHT22;28715;51.988;6.020;2023-07-31T03:31:37;18.10;99.90
43099;DHT22;28715;51.988;6.020;2023-07-31T03:34:02;18.10;99.90
43099;DHT22;28715;51.988;6.020;2023-07-31T03:36:28;18.10;99.90
43099;DHT22;28715;51.988;6.020;2023-07-31T03:38:53;18.00;99.90
43099;DHT22;28715;51.988;6.020;2023-07-31T03:41:19;18.00;99.90
43099;DHT22;28715;51.988;6.020;2023-07-31T03:43:46;18.00;99.90
43099;DHT22;28715;51.988;6.020;2023-07-31T03:46:14;18.10;99.90
43099;DHT22;28715;51.988;6.020;2023-07-31T03:48:43;18.00;99.90
43099;DHT22;28715;51.988;6.020;2023-07-31T03:51:08;18.00;99.90
43099;DHT22;28715;51.988;6.020;2023-07-31T03:53:34;18.00;99.90
43099;DHT22;28715;51.988;6.020;2023-07-31T03:56:02;18.00;99.90
43099;DHT22;28715;51.988;6.020;2023-07-31T03:58:28;18.00;99.90
43099;DHT22;28715;51.988;6.020;2023-07-31T04:00:53;18.00;99.90
43099;DHT22;28715;51.988;6.020;2023-07-31T04:03:19;18.00;99.90
43099;DHT22;28715;51.988;6.020;2023-07-31T04:05:45;18.00;99.90
43099;DHT22;28715;51.988;6.020;2023-07-31T04:08:10;17.90;99.90
43099;DHT22;28715;51.988;6.020;2023-07-31T04:10:36;17.90;99.90
43099;DHT22;28715;51.988;6.020;2023-07-31T04:13:01;17.90;99.90
43099;DHT22;28715;51.988;6.020;2023-07-31T04:15:27;18.00;99.90
43099;DHT22;28715;51.988;6.020;2023-07-31T04:17:52;18.00;99.90
43099;DHT22;28715;51.988;6.020;2023-07-31T04:20:18;18.00;99.90
43099;DHT22;28715;51.988;6.020;2023-07-31T04:22:43;18.00;99.90
43099;DHT22;28715;51.988;6.020;2023-07-31T04:25:09;18.00;99.90
43099;DHT22;28715;51.988;6.020;2023-07-31T04:27:34;18.00;99.90
43099;DHT22;28715;51.988;6.020;2023-07-31T04:30:00;18.00;99.90
43099;DHT22;28715;51.988;6.020;2023-07-31T04:32:25;18.00;99.90
43099;DHT22;28715;51.988;6.020;2023-07-31T04:34:51;18.10;99.90
43099;DHT22;28715;51.988;6.020;2023-07-31T04:37:16;18.10;99.90
43099;DHT22;28715;51.988;6.020;2023-07-31T04:39:42;18.10;99.90
43099;DHT22;28715;51.988;6.020;2023-07-31T04:42:07;18.10;99.90
43099;DHT22;28715;51.988;6.020;2023-07-31T04:44:33;18.10;99.90
43099;DHT22;28715;51.988;6.020;2023-07-31T04:46:58;18.10;99.90
43099;DHT22;28715;51.988;6.020;2023-07-31T04:49:24;18.10;99.90
43099;DHT22;28715;51.988;6.020;2023-07-31T04:51:49;18.10;99.90
43099;DHT22;28715;51.988;6.020;2023-07-31T04:54:15;18.10;99.90
43099;DHT22;28715;51.988;6.020;2023-07-31T04:56:43;18.10;99.90
43099;DHT22;28715;51.988;6.020;2023-07-31T04:59:08;18.10;99.90
43099;DHT22;28715;51.988;6.020;2023-07-31T05:01:34;18.10;99.90
43099;DHT22;28715;51.988;6.020;2023-07-31T05:04:00;18.10;99.90
43099;DHT22;28715;51.988;6.020;2023-07-31T05:06:25;18.10;99.90
43099;DHT22;28715;51.988;6.020;2023-07-31T05:08:51;18.00;99.90
43099;DHT22;28715;51.988;6.020;2023-07-31T05:11:16;18.10;99.90
43099;DHT22;28715;51.988;6.020;2023-07-31T05:13:42;18.10;99.90
43099;DHT22;28715;51.988;6.020;2023-07-31T05:16:07;18.10;99.90
43099;DHT22;28715;51.988;6.020;2023-07-31T05:18:33;18.10;99.90
43099;DHT22;28715;51.988;6.020;2023-07-31T05:20:58;18.10;99.90
43099;DHT22;28715;51.988;6.020;2023-07-31T05:23:23;18.10;99.90
43099;DHT22;28715;51.988;6.020;2023-07-31T05:25:49;18.10;99.90
43099;DHT22;28715;51.988;6.020;2023-07-31T05:28:14;18.10;99.90
43099;DHT22;28715;51.988;6.020;2023-07-31T05:30:40;18.10;99.90
43099;DHT22;28715;51.988;6.020;2023-07-31T05:33:05;18.10;99.90
43099;DHT22;28715;51.988;6.020;2023-07-31T05:35:31;18.10;99.90
43099;DHT22;28715;51.988;6.020;2023-07-31T05:38:03;18.10;99.90
43099;DHT22;28715;51.988;6.020;2023-07-31T05:40:31;18.10;99.90
43099;DHT22;28715;51.988;6.020;2023-07-31T05:42:57;18.10;99.90
43099;DHT22;28715;51.988;6.020;2023-07-31T05:45:22;18.10;99.90
43099;DHT22;28715;51.988;6.020;2023-07-31T05:47:48;18.00;99.90
43099;DHT22;28715;51.988;6.020;2023-07-31T05:50:19;18.00;99.90
43099;DHT22;28715;51.988;6.020;2023-07-31T05:52:45;18.00;99.90
43099;DHT22;28715;51.988;6.020;2023-07-31T05:55:10;18.00;99.90
43099;DHT22;28715;51.988;6.020;2023-07-31T05:57:36;17.90;99.90
43099;DHT22;28715;51.988;6.020;2023-07-31T06:00:02;17.90;99.90
43099;DHT22;28715;51.988;6.020;2023-07-31T06:02:27;17.90;99.90
43099;DHT22;28715;51.988;6.020;2023-07-31T06:04:53;17.90;99.90
43099;DHT22;28715;51.988;6.020;2023-07-31T06:07:18;17.90;99.90
43099;DHT22;28715;51.988;6.020;2023-07-31T06:09:44;17.90;99.90
43099;DHT22;28715;51.988;6.020;2023-07-31T06:12:10;17.90;99.90
43099;DHT22;28715;51.988;6.020;2023-07-31T06:14:35;17.90;99.90
43099;DHT22;28715;51.988;6.020;2023-07-31T06:17:01;17.90;99.90
43099;DHT22;28715;51.988;6.020;2023-07-31T06:19:26;17.80;99.90
43099;DHT22;28715;51.988;6.020;2023-07-31T06:21:52;17.90;99.90
43099;DHT22;28715;51.988;6.020;2023-07-31T06:24:17;17.90;99.90
43099;DHT22;28715;51.988;6.020;2023-07-31T06:26:45;17.90;99.90
43099;DHT22;28715;51.988;6.020;2023-07-31T06:29:11;17.90;99.90
43099;DHT22;28715;51.988;6.020;2023-07-31T06:31:36;17.90;99.90
43099;DHT22;28715;51.988;6.020;2023-07-31T06:34:02;18.00;99.90
43099;DHT22;28715;51.988;6.020;2023-07-31T06:36:27;18.00;99.90
43099;DHT22;28715;51.988;6.020;2023-07-31T06:38:53;18.10;99.90
43099;DHT22;28715;51.988;6.020;2023-07-31T06:41:18;18.10;99.90
43099;DHT22;28715;51.988;6.020;2023-07-31T06:43:44;18.10;99.90
43099;DHT22;28715;51.988;6.020;2023-07-31T06:46:09;18.10;99.90
43099;DHT22;28715;51.988;6.020;2023-07-31T06:48:35;18.10;99.90
43099;DHT22;28715;51.988;6.020;2023-07-31T06:51:02;18.10;99.90
43099;DHT22;28715;51.988;6.020;2023-07-31T06:53:28;18.10;99.90
43099;DHT22;28715;51.988;6.020;2023-07-31T06:55:53;18.10;99.90
43099;DHT22;28715;51.988;6.020;2023-07-31T06:58:20;18.10;99.90
43099;DHT22;28715;51.988;6.020;2023-07-31T07:00:45;18.10;99.90
43099;DHT22;28715;51.988;6.020;2023-07-31T07:03:11;18.20;99.90
43099;DHT22;28715;51.988;6.020;2023-07-31T07:05:36;18.20;99.90
43099;DHT22;28715;51.988;6.020;2023-07-31T07:08:01;18.20;99.90
43099;DHT22;28715;51.988;6.020;2023-07-31T07:10:27;18.20;99.90
43099;DHT22;28715;51.988;6.020;2023-07-31T07:12:52;18.20;99.90
43099;DHT22;28715;51.988;6.020;2023-07-31T07:15:18;18.20;99.90
43099;DHT22;28715;51.988;6.020;2023-07-31T07:17:43;18.20;99.90
43099;DHT22;28715;51.988;6.020;2023-07-31T07:20:09;18.30;99.90
43099;DHT22;28715;51.988;6.020;2023-07-31T07:22:35;18.30;99.90
43099;DHT22;28715;51.988;6.020;2023-07-31T07:25:00;18.30;99.90
43099;DHT22;28715;51.988;6.020;2023-07-31T07:27:26;18.40;99.90
43099;DHT22;28715;51.988;6.020;2023-07-31T07:29:52;18.40;99.90
43099;DHT22;28715;51.988;6.020;2023-07-31T07:32:21;18.40;99.90
43099;DHT22;28715;51.988;6.020;2023-07-31T07:34:47;18.40;99.90
43099;DHT22;28715;51.988;6.020;2023-07-31T07:37:12;18.40;99.90
43099;DHT22;28715;51.988;6.020;2023-07-31T07:39:38;18.40;99.90
43099;DHT22;28715;51.988;6.020;2023-07-31T07:42:03;18.50;99.90
43099;DHT22;28715;51.988;6.020;2023-07-31T07:44:29;18.50;99.90
43099;DHT22;28715;51.988;6.020;2023-07-31T07:46:55;18.50;99.90
43099;DHT22;28715;51.988;6.020;2023-07-31T07:49:20;18.50;99.90
43099;DHT22;28715;51.988;6.020;2023-07-31T07:51:48;18.50;99.90
43099;DHT22;28715;51.988;6.020;2023-07-31T07:54:13;18.50;99.90
43099;DHT22;28715;51.988;6.020;2023-07-31T07:56:39;18.50;99.90
43099;DHT22;28715;51.988;6.020;2023-07-31T07:59:04;18.50;99.90
43099;DHT22;28715;51.988;6.020;2023-07-31T08:01:30;18.50;99.90
43099;DHT22;28715;51.988;6.020;2023-07-31T08:03:55;18.50;99.90
43099;DHT22;28715;51.988;6.020;2023-07-31T08:06:21;18.50;99.90
43099;DHT22;28715;51.988;6.020;2023-07-31T08:08:47;18.50;99.90
43099;DHT22;28715;51.988;6.020;2023-07-31T08:11:13;18.50;99.90
43099;DHT22;28715;51.988;6.020;2023-07-31T08:13:38;18.50;99.90
43099;DHT22;28715;51.988;6.020;2023-07-31T08:16:04;18.50;99.90
43099;DHT22;28715;51.988;6.020;2023-07-31T08:18:30;18.50;99.90
43099;DHT22;28715;51.988;6.020;2023-07-31T08:20:56;18.60;99.90
43099;DHT22;28715;51.988;6.020;2023-07-31T08:23:21;18.60;99.90
43099;DHT22;28715;51.988;6.020;2023-07-31T08:25:47;18.60;99.90
43099;DHT22;28715;51.988;6.020;2023-07-31T08:28:14;18.60;99.90
43099;DHT22;28715;51.988;6.020;2023-07-31T08:30:40;18.60;99.90
43099;DHT22;28715;51.988;6.020;2023-07-31T08:33:06;18.60;99.90
43099;DHT22;28715;51.988;6.020;2023-07-31T08:35:32;18.60;99.90
43099;DHT22;28715;51.988;6.020;2023-07-31T08:37:57;18.60;99.90
43099;DHT22;28715;51.988;6.020;2023-07-31T08:40:23;18.60;99.90
43099;DHT22;28715;51.988;6.020;2023-07-31T08:42:49;18.70;99.90
43099;DHT22;28715;51.988;6.020;2023-07-31T08:45:16;18.70;99.90
43099;DHT22;28715;51.988;6.020;2023-07-31T08:47:50;18.70;99.90
43099;DHT22;28715;51.988;6.020;2023-07-31T08:50:16;18.70;99.90
43099;DHT22;28715;51.988;6.020;2023-07-31T08:52:42;18.80;99.90
43099;DHT22;28715;51.988;6.020;2023-07-31T08:55:08;18.80;99.90
43099;DHT22;28715;51.988;6.020;2023-07-31T08:57:34;18.80;99.90
43099;DHT22;28715;51.988;6.020;2023-07-31T09:00:00;18.80;99.90
43099;DHT22;28715;51.988;6.020;2023-07-31T09:02:26;18.80;99.90
43099;DHT22;28715;51.988;6.020;2023-07-31T09:04:56;18.80;99.90
43099;DHT22;28715;51.988;6.020;2023-07-31T09:07:22;18.90;99.90
43099;DHT22;28715;51.988;6.020;2023-07-31T09:09:48;18.90;99.90
43099;DHT22;28715;51.988;6.020;2023-07-31T09:12:14;19.00;99.90
43099;DHT22;28715;51.988;6.020;2023-07-31T09:14:39;19.00;99.90
43099;DHT22;28715;51.988;6.020;2023-07-31T09:17:05;19.00;99.90
43099;DHT22;28715;51.988;6.020;2023-07-31T09:19:34;19.00;99.90
43099;DHT22;28715;51.988;6.020;2023-07-31T09:22:02;19.00;99.90
43099;DHT22;28715;51.988;6.020;2023-07-31T09:24:28;19.00;99.90
43099;DHT22;28715;51.988;6.020;2023-07-31T09:26:54;19.10;99.90
43099;DHT22;28715;51.988;6.020;2023-07-31T09:29:24;19.00;99.90
43099;DHT22;28715;51.988;6.020;2023-07-31T09:31:50;19.00;99.90
43099;DHT22;28715;51.988;6.020;2023-07-31T09:34:15;19.00;99.90
43099;DHT22;28715;51.988;6.020;2023-07-31T09:39:08;19.00;99.90
43099;DHT22;28715;51.988;6.020;2023-07-31T09:41:36;19.00;99.90
43099;DHT22;28715;51.988;6.020;2023-07-31T09:44:02;19.00;99.90
43099;DHT22;28715;51.988;6.020;2023-07-31T09:46:27;19.00;99.90
43099;DHT22;28715;51.988;6.020;2023-07-31T09:48:53;19.00;99.90
43099;DHT22;28715;51.988;6.020;2023-07-31T09:51:25;18.90;99.90
43099;DHT22;28715;51.988;6.020;2023-07-31T09:53:51;18.90;99.90
43099;DHT22;28715;51.988;6.020;2023-07-31T09:56:17;18.90;99.90
43099;DHT22;28715;51.988;6.020;2023-07-31T09:58:43;18.90;99.90
43099;DHT22;28715;51.988;6.020;2023-07-31T10:01:09;19.00;99.90
43099;DHT22;28715;51.988;6.020;2023-07-31T10:03:34;19.00;99.90
43099;DHT22;28715;51.988;6.020;2023-07-31T10:06:00;19.00;99.90
43099;DHT22;28715;51.988;6.020;2023-07-31T10:08:28;19.00;99.90
43099;DHT22;28715;51.988;6.020;2023-07-31T10:10:55;19.00;99.90
43099;DHT22;28715;51.988;6.020;2023-07-31T10:13:23;19.00;99.90
43099;DHT22;28715;51.988;6.020;2023-07-31T10:15:49;19.00;99.90
43099;DHT22;28715;51.988;6.020;2023-07-31T10:18:15;19.10;99.90
43099;DHT22;28715;51.988;6.020;2023-07-31T10:20:44;19.10;99.90
43099;DHT22;28715;51.988;6.020;2023-07-31T10:23:10;19.20;99.90
43099;DHT22;28715;51.988;6.020;2023-07-31T10:25:36;19.20;99.90
43099;DHT22;28715;51.988;6.020;2023-07-31T10:28:02;19.20;99.90
43099;DHT22;28715;51.988;6.020;2023-07-31T10:30:28;19.20;99.90
43099;DHT22;28715;51.988;6.020;2023-07-31T10:32:54;19.30;99.90
43099;DHT22;28715;51.988;6.020;2023-07-31T10:35:20;19.30;99.90
43099;DHT22;28715;51.988;6.020;2023-07-31T10:37:47;19.30;99.90
43099;DHT22;28715;51.988;6.020;2023-07-31T10:40:17;19.40;99.90
43099;DHT22;28715;51.988;6.020;2023-07-31T10:45:31;19.50;99.90
43099;DHT22;28715;51.988;6.020;2023-07-31T10:48:03;19.50;99.90
43099;DHT22;28715;51.988;6.020;2023-07-31T10:50:30;19.50;99.90
43099;DHT22;28715;51.988;6.020;2023-07-31T10:52:58;19.60;99.90
43099;DHT22;28715;51.988;6.020;2023-07-31T10:55:28;19.60;99.90
43099;DHT22;28715;51.988;6.020;2023-07-31T10:57:54;19.70;99.90
43099;DHT22;28715;51.988;6.020;2023-07-31T11:08:28;19.90;99.90
43099;DHT22;28715;51.988;6.020;2023-07-31T11:15:54;19.90;99.90
43099;DHT22;28715;51.988;6.020;2023-07-31T11:18:19;19.90;99.90
43099;DHT22;28715;51.988;6.020;2023-07-31T11:20:45;19.90;99.90
43099;DHT22;28715;51.988;6.020;2023-07-31T11:23:11;20.00;99.90
43099;DHT22;28715;51.988;6.020;2023-07-31T11:25:37;20.00;99.90
43099;DHT22;28715;51.988;6.020;2023-07-31T11:28:07;20.00;99.90
43099;DHT22;28715;51.988;6.020;2023-07-31T11:30:33;20.00;99.90
43099;DHT22;28715;51.988;6.020;2023-07-31T11:33:00;19.90;99.90
43099;DHT22;28715;51.988;6.020;2023-07-31T11:35:26;20.00;99.90
43099;DHT22;28715;51.988;6.020;2023-07-31T11:37:51;19.90;99.90
43099;DHT22;28715;51.988;6.020;2023-07-31T11:40:17;19.90;99.90
43099;DHT22;28715;51.988;6.020;2023-07-31T11:42:43;19.90;99.90
43099;DHT22;28715;51.988;6.020;2023-07-31T11:45:08;19.90;99.90
43099;DHT22;28715;51.988;6.020;2023-07-31T11:47:37;19.90;99.90
43099;DHT22;28715;51.988;6.020;2023-07-31T11:50:03;20.00;99.90
43099;DHT22;28715;51.988;6.020;2023-07-31T11:52:34;20.00;99.90
43099;DHT22;28715;51.988;6.020;2023-07-31T11:55:01;20.00;99.90
43099;DHT22;28715;51.988;6.020;2023-07-31T11:57:27;20.10;99.90
43099;DHT22;28715;51.988;6.020;2023-07-31T11:59:53;20.10;99.90
43099;DHT22;28715;51.988;6.020;2023-07-31T12:02:19;20.10;99.90
43099;DHT22;28715;51.988;6.020;2023-07-31T12:04:46;20.10;99.90
43099;DHT22;28715;51.988;6.020;2023-07-31T12:07:12;20.10;99.90
43099;DHT22;28715;51.988;6.020;2023-07-31T12:09:38;20.10;99.90
43099;DHT22;28715;51.988;6.020;2023-07-31T12:12:07;20.10;99.90
43099;DHT22;28715;51.988;6.020;2023-07-31T12:14:33;20.10;99.90
43099;DHT22;28715;51.988;6.020;2023-07-31T12:16:59;20.20;99.90
43099;DHT22;28715;51.988;6.020;2023-07-31T12:19:25;20.20;99.90
43099;DHT22;28715;51.988;6.020;2023-07-31T12:21:53;20.20;99.90
43099;DHT22;28715;51.988;6.020;2023-07-31T12:24:19;20.30;99.90
43099;DHT22;28715;51.988;6.020;2023-07-31T12:26:48;20.30;99.90
43099;DHT22;28715;51.988;6.020;2023-07-31T12:29:13;20.40;99.90
43099;DHT22;28715;51.988;6.020;2023-07-31T12:31:40;20.40;99.90
43099;DHT22;28715;51.988;6.020;2023-07-31T12:34:14;20.40;99.90
43099;DHT22;28715;51.988;6.020;2023-07-31T12:36:39;20.40;99.90
43099;DHT22;28715;51.988;6.020;2023-07-31T12:39:05;20.30;99.90
43099;DHT22;28715;51.988;6.020;2023-07-31T12:41:30;20.30;99.90
43099;DHT22;28715;51.988;6.020;2023-07-31T12:43:56;20.30;99.90
43099;DHT22;28715;51.988;6.020;2023-07-31T12:46:21;20.30;99.90
43099;DHT22;28715;51.988;6.020;2023-07-31T12:48:47;20.20;99.90
43099;DHT22;28715;51.988;6.020;2023-07-31T12:51:12;20.20;99.90
43099;DHT22;28715;51.988;6.020;2023-07-31T12:53:38;20.10;99.90
43099;DHT22;28715;51.988;6.020;2023-07-31T12:56:03;20.10;99.90
43099;DHT22;28715;51.988;6.020;2023-07-31T12:58:29;20.10;99.90
43099;DHT22;28715;51.988;6.020;2023-07-31T13:00:54;20.10;99.90
43099;DHT22;28715;51.988;6.020;2023-07-31T13:03:20;20.10;99.90
43099;DHT22;28715;51.988;6.020;2023-07-31T13:05:48;20.00;99.90
43099;DHT22;28715;51.988;6.020;2023-07-31T13:08:14;19.90;99.90
43099;DHT22;28715;51.988;6.020;2023-07-31T13:10:41;19.90;99.90
43099;DHT22;28715;51.988;6.020;2023-07-31T13:13:06;19.90;99.90
43099;DHT22;28715;51.988;6.020;2023-07-31T13:15:32;20.00;99.90
43099;DHT22;28715;51.988;6.020;2023-07-31T13:17:57;20.00;99.90
43099;DHT22;28715;51.988;6.020;2023-07-31T13:20:23;20.10;99.90
43099;DHT22;28715;51.988;6.020;2023-07-31T13:22:48;20.10;99.90
43099;DHT22;28715;51.988;6.020;2023-07-31T13:25:14;20.20;99.90
43099;DHT22;28715;51.988;6.020;2023-07-31T13:27:39;20.20;99.90
43099;DHT22;28715;51.988;6.020;2023-07-31T13:30:05;20.30;99.90
43099;DHT22;28715;51.988;6.020;2023-07-31T13:32:31;20.30;99.90
43099;DHT22;28715;51.988;6.020;2023-07-31T13:34:56;20.30;99.90
43099;DHT22;28715;51.988;6.020;2023-07-31T13:37:22;20.40;99.90
43099;DHT22;28715;51.988;6.020;2023-07-31T13:39:47;20.50;99.90
43099;DHT22;28715;51.988;6.020;2023-07-31T13:42:13;20.50;99.90
43099;DHT22;28715;51.988;6.020;2023-07-31T13:44:39;20.60;99.90
43099;DHT22;28715;51.988;6.020;2023-07-31T13:47:05;20.70;99.90
43099;DHT22;28715;51.988;6.020;2023-07-31T13:49:30;20.70;99.90
43099;DHT22;28715;51.988;6.020;2023-07-31T13:51:56;20.70;99.90
43099;DHT22;28715;51.988;6.020;2023-07-31T13:54:22;20.70;99.90
43099;DHT22;28715;51.988;6.020;2023-07-31T13:56:48;20.70;99.90
43099;DHT22;28715;51.988;6.020;2023-07-31T13:59:13;20.60;99.90
43099;DHT22;28715;51.988;6.020;2023-07-31T14:01:41;20.60;99.90
43099;DHT22;28715;51.988;6.020;2023-07-31T14:04:06;20.50;99.90
43099;DHT22;28715;51.988;6.020;2023-07-31T14:06:32;20.50;99.90
43099;DHT22;28715;51.988;6.020;2023-07-31T14:08:57;20.50;99.90
43099;DHT22;28715;51.988;6.020;2023-07-31T14:11:23;20.50;99.90
43099;DHT22;28715;51.988;6.020;2023-07-31T14:13:49;20.60;99.90
43099;DHT22;28715;51.988;6.020;2023-07-31T14:16:17;20.60;99.90
43099;DHT22;28715;51.988;6.020;2023-07-31T14:18:42;20.50;99.90
43099;DHT22;28715;51.988;6.020;2023-07-31T14:21:08;20.50;99.90
43099;DHT22;28715;51.988;6.020;2023-07-31T14:23:34;20.50;99.90
43099;DHT22;28715;51.988;6.020;2023-07-31T14:25:59;20.50;99.90
43099;DHT22;28715;51.988;6.020;2023-07-31T14:28:24;20.50;99.90
43099;DHT22;28715;51.988;6.020;2023-07-31T14:30:50;20.50;99.90
43099;DHT22;28715;51.988;6.020;2023-07-31T14:33:16;20.40;99.90
43099;DHT22;28715;51.988;6.020;2023-07-31T14:35:41;20.40;99.90
43099;DHT22;28715;51.988;6.020;2023-07-31T14:38:07;20.40;99.90
43099;DHT22;28715;51.988;6.020;2023-07-31T14:40:32;20.30;99.90
43099;DHT22;28715;51.988;6.020;2023-07-31T14:42:58;20.40;99.90
43099;DHT22;28715;51.988;6.020;2023-07-31T14:45:23;20.40;99.90
43099;DHT22;28715;51.988;6.020;2023-07-31T14:47:49;20.30;99.90
43099;DHT22;28715;51.988;6.020;2023-07-31T14:50:14;20.30;99.90
43099;DHT22;28715;51.988;6.020;2023-07-31T14:52:40;20.20;99.90
43099;DHT22;28715;51.988;6.020;2023-07-31T14:55:05;20.20;99.90
43099;DHT22;28715;51.988;6.020;2023-07-31T14:57:31;20.20;99.90
43099;DHT22;28715;51.988;6.020;2023-07-31T14:59:56;20.20;99.90
43099;DHT22;28715;51.988;6.020;2023-07-31T15:02:22;20.10;99.90
43099;DHT22;28715;51.988;6.020;2023-07-31T15:04:47;20.10;99.90
43099;DHT22;28715;51.988;6.020;2023-07-31T15:07:12;20.10;99.90
43099;DHT22;28715;51.988;6.020;2023-07-31T15:09:39;20.10;99.90
43099;DHT22;28715;51.988;6.020;2023-07-31T15:12:04;20.20;99.90
43099;DHT22;28715;51.988;6.020;2023-07-31T15:14:30;20.10;99.90
43099;DHT22;28715;51.988;6.020;2023-07-31T15:16:56;20.20;99.90
43099;DHT22;28715;51.988;6.020;2023-07-31T15:19:22;20.10;99.90
43099;DHT22;28715;51.988;6.020;2023-07-31T15:21:48;20.10;99.90
43099;DHT22;28715;51.988;6.020;2023-07-31T15:24:14;20.10;99.90
43099;DHT22;28715;51.988;6.020;2023-07-31T15:26:39;20.20;99.90
43099;DHT22;28715;51.988;6.020;2023-07-31T15:29:07;20.10;99.90
43099;DHT22;28715;51.988;6.020;2023-07-31T15:31:41;20.20;99.90
43099;DHT22;28715;51.988;6.020;2023-07-31T15:34:06;20.20;99.90
43099;DHT22;28715;51.988;6.020;2023-07-31T15:36:32;20.10;99.90
43099;DHT22;28715;51.988;6.020;2023-07-31T15:38:58;20.10;99.90
43099;DHT22;28715;51.988;6.020;2023-07-31T15:41:23;20.10;99.90
43099;DHT22;28715;51.988;6.020;2023-07-31T15:43:49;20.10;99.90
43099;DHT22;28715;51.988;6.020;2023-07-31T15:46:14;20.10;99.90